sensor_id;sensor_type;location;lat;lon;timestamp;P1;durP1;ratioP1;P2;durP2;ratioP2
43519;SDS011;46848;51.980;5.918;2023-04-09T18:45:11;10.05;;;6.47;;
43519;SDS011;46848;51.980;5.918;2023-04-09T18:47:37;9.23;;;7.07;;
43519;SDS011;46848;51.980;5.918;2023-04-09T18:50:04;9.55;;;6.65;;
43519;SDS011;46848;51.980;5.918;2023-04-09T18:52:31;10.23;;;6.95;;
43519;SDS011;46848;51.980;5.918;2023-04-09T18:54:57;10.48;;;6.43;;
43519;SDS011;46848;51.980;5.918;2023-04-09T18:57:24;9.50;;;5.78;;
43519;SDS011;46848;51.980;5.918;2023-04-09T18:59:51;12.07;;;7.45;;
43519;SDS011;46848;51.980;5.918;2023-04-09T19:02:16;9.55;;;6.53;;
43519;SDS011;46848;51.980;5.918;2023-04-09T19:04:44;11.07;;;7.68;;
43519;SDS011;46848;51.980;5.918;2023-04-09T19:07:10;10.30;;;7.43;;
43519;SDS011;46848;51.980;5.918;2023-04-09T19:09:36;10.75;;;7.35;;
43519;SDS011;46848;51.980;5.918;2023-04-09T19:12:02;11.07;;;7.72;;
43519;SDS011;46848;51.980;5.918;2023-04-09T19:14:29;11.05;;;7.55;;
43519;SDS011;46848;51.980;5.918;2023-04-09T19:16:55;13.05;;;8.52;;
43519;SDS011;46848;51.980;5.918;2023-04-09T19:19:21;14.60;;;8.70;;
43519;SDS011;46848;51.980;5.918;2023-04-09T19:21:47;14.02;;;8.57;;
43519;SDS011;46848;51.980;5.918;2023-04-09T19:24:12;12.32;;;8.82;;
43519;SDS011;46848;51.980;5.918;2023-04-09T19:26:38;15.27;;;9.57;;
43519;SDS011;46848;51.980;5.918;2023-04-09T19:29:04;13.82;;;9.68;;
43519;SDS011;46848;51.980;5.918;2023-04-09T19:31:30;13.88;;;9.27;;
43519;SDS011;46848;51.980;5.918;2023-04-09T19:33:56;13.65;;;10.05;;
43519;SDS011;46848;51.980;5.918;2023-04-09T19:36:21;17.35;;;10.98;;
43519;SDS011;46848;51.980;5.918;2023-04-09T19:38:47;15.00;;;10.57;;
43519;SDS011;46848;51.980;5.918;2023-04-09T19:41:14;16.35;;;11.43;;
43519;SDS011;46848;51.980;5.918;2023-04-09T19:43:40;13.50;;;9.93;;
43519;SDS011;46848;51.980;5.918;2023-04-09T19:46:06;16.98;;;11.40;;
43519;SDS011;46848;51.980;5.918;2023-04-09T19:48:32;17.10;;;11.70;;
43519;SDS011;46848;51.980;5.918;2023-04-09T19:50:58;16.38;;;11.10;;
43519;SDS011;46848;51.980;5.918;2023-04-09T19:53:27;18.52;;;12.45;;
43519;SDS011;46848;51.980;5.918;2023-04-09T19:55:52;17.23;;;12.27;;
43519;SDS011;46848;51.980;5.918;2023-04-09T19:58:18;17.55;;;12.10;;
43519;SDS011;46848;51.980;5.918;2023-04-09T20:00:44;17.98;;;13.02;;
43519;SDS011;46848;51.980;5.918;2023-04-09T20:03:10;20.40;;;14.30;;
43519;SDS011;46848;51.980;5.918;2023-04-09T20:05:35;19.90;;;12.98;;
43519;SDS011;46848;51.980;5.918;2023-04-09T20:08:01;18.27;;;12.75;;
43519;SDS011;46848;51.980;5.918;2023-04-09T20:10:27;24.00;;;15.73;;
43519;SDS011;46848;51.980;5.918;2023-04-09T20:12:52;20.48;;;14.77;;
43519;SDS011;46848;51.980;5.918;2023-04-09T20:15:18;20.85;;;14.32;;
43519;SDS011;46848;51.980;5.918;2023-04-09T20:17:48;21.20;;;15.35;;
43519;SDS011;46848;51.980;5.918;2023-04-09T20:22:44;25.73;;;16.73;;
43519;SDS011;46848;51.980;5.918;2023-04-09T20:25:11;21.52;;;14.13;;
43519;SDS011;46848;51.980;5.918;2023-04-09T20:27:37;19.65;;;14.48;;
43519;SDS011;46848;51.980;5.918;2023-04-09T20:30:05;21.45;;;15.07;;
43519;SDS011;46848;51.980;5.918;2023-04-09T20:32:33;21.05;;;14.38;;
43519;SDS011;46848;51.980;5.918;2023-04-09T20:35:00;22.42;;;15.60;;
43519;SDS011;46848;51.980;5.918;2023-04-09T20:37:26;21.73;;;15.57;;
43519;SDS011;46848;51.980;5.918;2023-04-09T20:39:52;23.13;;;15.95;;
43519;SDS011;46848;51.980;5.918;2023-04-09T20:42:17;23.92;;;16.90;;
43519;SDS011;46848;51.980;5.918;2023-04-09T20:44:43;22.38;;;15.55;;
43519;SDS011;46848;51.980;5.918;2023-04-09T20:47:10;20.80;;;15.27;;
43519;SDS011;46848;51.980;5.918;2023-04-09T20:49:35;21.90;;;15.45;;
43519;SDS011;46848;51.980;5.918;2023-04-09T20:52:01;22.88;;;16.08;;
43519;SDS011;46848;51.980;5.918;2023-04-09T20:54:27;22.23;;;15.93;;
43519;SDS011;46848;51.980;5.918;2023-04-09T20:56:53;21.75;;;15.30;;
43519;SDS011;46848;51.980;5.918;2023-04-09T20:59:20;22.05;;;15.70;;
43519;SDS011;46848;51.980;5.918;2023-04-09T21:01:45;20.20;;;14.32;;
43519;SDS011;46848;51.980;5.918;2023-04-09T21:04:12;21.38;;;14.98;;
43519;SDS011;46848;51.980;5.918;2023-04-09T21:06:38;19.50;;;14.00;;
43519;SDS011;46848;51.980;5.918;2023-04-09T21:09:04;20.05;;;14.82;;
43519;SDS011;46848;51.980;5.918;2023-04-09T21:11:30;21.75;;;15.02;;
43519;SDS011;46848;51.980;5.918;2023-04-09T21:13:56;21.17;;;13.50;;
43519;SDS011;46848;51.980;5.918;2023-04-09T21:16:22;20.55;;;14.20;;
43519;SDS011;46848;51.980;5.918;2023-04-09T21:18:47;20.48;;;14.90;;
43519;SDS011;46848;51.980;5.918;2023-04-09T21:21:14;20.98;;;14.60;;
43519;SDS011;46848;51.980;5.918;2023-04-09T21:23:39;19.42;;;13.85;;
43519;SDS011;46848;51.980;5.918;2023-04-09T21:26:05;21.42;;;13.60;;
43519;SDS011;46848;51.980;5.918;2023-04-09T21:28:31;20.50;;;13.80;;
43519;SDS011;46848;51.980;5.918;2023-04-09T21:30:57;19.13;;;13.05;;
43519;SDS011;46848;51.980;5.918;2023-04-09T21:33:22;18.40;;;13.15;;
43519;SDS011;46848;51.980;5.918;2023-04-09T21:35:52;17.55;;;12.30;;
43519;SDS011;46848;51.980;5.918;2023-04-09T21:38:18;17.58;;;11.95;;
43519;SDS011;46848;51.980;5.918;2023-04-09T21:40:46;15.35;;;10.95;;
43519;SDS011;46848;51.980;5.918;2023-04-09T21:43:12;16.02;;;11.50;;
43519;SDS011;46848;51.980;5.918;2023-04-09T21:45:38;16.70;;;10.93;;
43519;SDS011;46848;51.980;5.918;2023-04-09T21:48:04;14.70;;;10.60;;
43519;SDS011;46848;51.980;5.918;2023-04-09T21:50:31;15.43;;;11.40;;
43519;SDS011;46848;51.980;5.918;2023-04-09T21:52:57;15.93;;;10.75;;
43519;SDS011;46848;51.980;5.918;2023-04-09T21:55:22;15.27;;;10.23;;
43519;SDS011;46848;51.980;5.918;2023-04-09T21:57:48;15.68;;;10.50;;
43519;SDS011;46848;51.980;5.918;2023-04-09T22:00:16;16.60;;;10.65;;
43519;SDS011;46848;51.980;5.918;2023-04-09T22:02:42;14.63;;;10.43;;
43519;SDS011;46848;51.980;5.918;2023-04-09T22:05:08;15.75;;;11.13;;
43519;SDS011;46848;51.980;5.918;2023-04-09T22:07:34;14.55;;;10.18;;
43519;SDS011;46848;51.980;5.918;2023-04-09T22:10:01;14.95;;;10.55;;
43519;SDS011;46848;51.980;5.918;2023-04-09T22:12:26;15.85;;;10.48;;
43519;SDS011;46848;51.980;5.918;2023-04-09T22:14:52;14.00;;;10.32;;
43519;SDS011;46848;51.980;5.918;2023-04-09T22:17:17;14.60;;;10.23;;
43519;SDS011;46848;51.980;5.918;2023-04-09T22:19:43;14.70;;;9.38;;
43519;SDS011;46848;51.980;5.918;2023-04-09T22:22:10;13.95;;;10.20;;
43519;SDS011;46848;51.980;5.918;2023-04-09T22:24:37;17.90;;;11.25;;
43519;SDS011;46848;51.980;5.918;2023-04-09T22:27:03;17.30;;;10.63;;
43519;SDS011;46848;51.980;5.918;2023-04-09T22:29:29;15.65;;;11.48;;
43519;SDS011;46848;51.980;5.918;2023-04-09T22:31:55;17.63;;;11.85;;
43519;SDS011;46848;51.980;5.918;2023-04-09T22:34:20;21.45;;;13.90;;
43519;SDS011;46848;51.980;5.918;2023-04-09T22:36:46;21.98;;;14.77;;
43519;SDS011;46848;51.980;5.918;2023-04-09T22:39:12;23.08;;;15.82;;
43519;SDS011;46848;51.980;5.918;2023-04-09T22:41:37;25.92;;;16.75;;
43519;SDS011;46848;51.980;5.918;2023-04-09T22:44:03;23.35;;;15.27;;
43519;SDS011;46848;51.980;5.918;2023-04-09T22:46:30;23.55;;;16.55;;
43519;SDS011;46848;51.980;5.918;2023-04-09T22:48:56;23.55;;;16.13;;
43519;SDS011;46848;51.980;5.918;2023-04-09T22:51:22;26.85;;;17.13;;
43519;SDS011;46848;51.980;5.918;2023-04-09T22:53:48;25.48;;;17.52;;
43519;SDS011;46848;51.980;5.918;2023-04-09T22:56:14;23.65;;;15.93;;
43519;SDS011;46848;51.980;5.918;2023-04-09T22:58:39;23.65;;;16.30;;
43519;SDS011;46848;51.980;5.918;2023-04-09T23:01:05;26.40;;;16.95;;
43519;SDS011;46848;51.980;5.918;2023-04-09T23:03:31;25.90;;;18.20;;
43519;SDS011;46848;51.980;5.918;2023-04-09T23:05:57;24.05;;;16.55;;
43519;SDS011;46848;51.980;5.918;2023-04-09T23:08:22;24.85;;;17.38;;
43519;SDS011;46848;51.980;5.918;2023-04-09T23:10:48;22.65;;;15.75;;
43519;SDS011;46848;51.980;5.918;2023-04-09T23:13:13;22.42;;;15.27;;
43519;SDS011;46848;51.980;5.918;2023-04-09T23:15:41;24.10;;;16.70;;
43519;SDS011;46848;51.980;5.918;2023-04-09T23:18:07;22.38;;;15.43;;
43519;SDS011;46848;51.980;5.918;2023-04-09T23:20:33;21.75;;;14.07;;
43519;SDS011;46848;51.980;5.918;2023-04-09T23:22:59;24.25;;;15.93;;
43519;SDS011;46848;51.980;5.918;2023-04-09T23:25:25;22.17;;;14.75;;
43519;SDS011;46848;51.980;5.918;2023-04-09T23:27:51;20.23;;;14.10;;
43519;SDS011;46848;51.980;5.918;2023-04-09T23:30:16;22.27;;;14.25;;
43519;SDS011;46848;51.980;5.918;2023-04-09T23:32:43;23.33;;;14.27;;
43519;SDS011;46848;51.980;5.918;2023-04-09T23:35:10;22.10;;;14.85;;
43519;SDS011;46848;51.980;5.918;2023-04-09T23:37:36;21.38;;;13.25;;
43519;SDS011;46848;51.980;5.918;2023-04-09T23:40:05;21.52;;;14.65;;
43519;SDS011;46848;51.980;5.918;2023-04-09T23:42:31;19.70;;;14.25;;
43519;SDS011;46848;51.980;5.918;2023-04-09T23:44:58;22.10;;;14.30;;
43519;SDS011;46848;51.980;5.918;2023-04-09T23:47:31;16.48;;;11.95;;
43519;SDS011;46848;51.980;5.918;2023-04-09T23:50:02;16.02;;;11.02;;
43519;SDS011;46848;51.980;5.918;2023-04-09T23:52:35;17.80;;;12.65;;
43519;SDS011;46848;51.980;5.918;2023-04-09T23:55:01;17.33;;;11.60;;
43519;SDS011;46848;51.980;5.918;2023-04-09T23:57:28;16.05;;;11.20;;
43519;SDS011;46848;51.980;5.918;2023-04-09T23:59:53;15.63;;;10.45;;
